sensor_id;sensor_type;location;lat;lon;timestamp;P1;durP1;ratioP1;P2;durP2;ratioP2
52534;SDS011;38443;53.164;5.802;2022-12-11T00:02:19;45.80;;;13.30;;
52534;SDS011;38443;53.164;5.802;2022-12-11T00:04:45;48.03;;;14.15;;
52534;SDS011;38443;53.164;5.802;2022-12-11T00:09:36;56.90;;;14.93;;
52534;SDS011;38443;53.164;5.802;2022-12-11T00:14:29;58.00;;;16.23;;
52534;SDS011;38443;53.164;5.802;2022-12-11T00:16:54;46.63;;;13.57;;
52534;SDS011;38443;53.164;5.802;2022-12-11T00:19:19;29.63;;;12.82;;
52534;SDS011;38443;53.164;5.802;2022-12-11T00:21:45;40.70;;;14.07;;
52534;SDS011;38443;53.164;5.802;2022-12-11T00:26:36;38.40;;;12.07;;
52534;SDS011;38443;53.164;5.802;2022-12-11T00:29:01;53.35;;;15.57;;
52534;SDS011;38443;53.164;5.802;2022-12-11T00:31:27;40.10;;;13.13;;
52534;SDS011;38443;53.164;5.802;2022-12-11T00:33:53;47.70;;;14.55;;
52534;SDS011;38443;53.164;5.802;2022-12-11T00:38:45;52.53;;;14.10;;
52534;SDS011;38443;53.164;5.802;2022-12-11T00:41:10;49.30;;;15.18;;
52534;SDS011;38443;53.164;5.802;2022-12-11T00:46:02;54.78;;;13.18;;
52534;SDS011;38443;53.164;5.802;2022-12-11T00:50:53;48.50;;;14.65;;
52534;SDS011;38443;53.164;5.802;2022-12-11T00:53:18;60.33;;;16.58;;
52534;SDS011;38443;53.164;5.802;2022-12-11T00:55:44;64.00;;;16.30;;
52534;SDS011;38443;53.164;5.802;2022-12-11T01:00:35;51.97;;;14.25;;
52534;SDS011;38443;53.164;5.802;2022-12-11T01:03:03;46.10;;;15.48;;
52534;SDS011;38443;53.164;5.802;2022-12-11T01:07:54;38.40;;;13.57;;
52534;SDS011;38443;53.164;5.802;2022-12-11T01:12:49;54.05;;;12.70;;
52534;SDS011;38443;53.164;5.802;2022-12-11T01:15:15;52.40;;;14.45;;
52534;SDS011;38443;53.164;5.802;2022-12-11T01:17:40;37.65;;;14.65;;
52534;SDS011;38443;53.164;5.802;2022-12-11T01:20:06;40.35;;;13.32;;
52534;SDS011;38443;53.164;5.802;2022-12-11T01:22:32;42.35;;;12.90;;
52534;SDS011;38443;53.164;5.802;2022-12-11T01:27:23;40.42;;;13.95;;
52534;SDS011;38443;53.164;5.802;2022-12-11T01:29:48;54.38;;;14.77;;
52534;SDS011;38443;53.164;5.802;2022-12-11T01:32:14;51.95;;;14.80;;
52534;SDS011;38443;53.164;5.802;2022-12-11T01:37:05;34.90;;;11.65;;
52534;SDS011;38443;53.164;5.802;2022-12-11T01:39:30;49.40;;;13.45;;
52534;SDS011;38443;53.164;5.802;2022-12-11T01:41:59;49.40;;;13.15;;
52534;SDS011;38443;53.164;5.802;2022-12-11T01:46:51;43.03;;;12.98;;
52534;SDS011;38443;53.164;5.802;2022-12-11T01:49:17;56.83;;;14.75;;
52534;SDS011;38443;53.164;5.802;2022-12-11T01:54:40;51.88;;;13.18;;
52534;SDS011;38443;53.164;5.802;2022-12-11T01:57:07;51.05;;;14.27;;
52534;SDS011;38443;53.164;5.802;2022-12-11T01:59:35;60.78;;;15.40;;
52534;SDS011;38443;53.164;5.802;2022-12-11T02:02:05;49.88;;;15.27;;
52534;SDS011;38443;53.164;5.802;2022-12-11T02:04:33;50.50;;;14.77;;
52534;SDS011;38443;53.164;5.802;2022-12-11T02:07:01;38.83;;;12.70;;
52534;SDS011;38443;53.164;5.802;2022-12-11T02:12:00;52.55;;;14.65;;
52534;SDS011;38443;53.164;5.802;2022-12-11T02:14:57;43.88;;;13.60;;
52534;SDS011;38443;53.164;5.802;2022-12-11T02:20:22;53.50;;;15.55;;
52534;SDS011;38443;53.164;5.802;2022-12-11T02:22:55;43.78;;;13.27;;
52534;SDS011;38443;53.164;5.802;2022-12-11T02:28:41;48.40;;;14.63;;
52534;SDS011;38443;53.164;5.802;2022-12-11T02:36:57;46.17;;;14.07;;
52534;SDS011;38443;53.164;5.802;2022-12-11T02:39:29;52.42;;;16.30;;
52534;SDS011;38443;53.164;5.802;2022-12-11T02:41:57;53.55;;;14.80;;
52534;SDS011;38443;53.164;5.802;2022-12-11T02:44:25;63.35;;;15.35;;
52534;SDS011;38443;53.164;5.802;2022-12-11T02:46:54;50.83;;;16.65;;
52534;SDS011;38443;53.164;5.802;2022-12-11T02:49:20;54.67;;;15.68;;
52534;SDS011;38443;53.164;5.802;2022-12-11T02:51:48;71.22;;;16.92;;
52534;SDS011;38443;53.164;5.802;2022-12-11T02:54:20;55.88;;;17.23;;
52534;SDS011;38443;53.164;5.802;2022-12-11T02:56:53;61.78;;;18.48;;
52534;SDS011;38443;53.164;5.802;2022-12-11T02:59:30;55.58;;;15.15;;
52534;SDS011;38443;53.164;5.802;2022-12-11T03:02:00;55.53;;;16.02;;
52534;SDS011;38443;53.164;5.802;2022-12-11T03:04:27;62.10;;;18.25;;
52534;SDS011;38443;53.164;5.802;2022-12-11T03:06:54;61.22;;;17.33;;
52534;SDS011;38443;53.164;5.802;2022-12-11T03:09:24;56.60;;;15.80;;
52534;SDS011;38443;53.164;5.802;2022-12-11T03:11:50;60.90;;;16.45;;
52534;SDS011;38443;53.164;5.802;2022-12-11T03:14:16;63.03;;;18.50;;
52534;SDS011;38443;53.164;5.802;2022-12-11T03:19:21;59.17;;;17.88;;
52534;SDS011;38443;53.164;5.802;2022-12-11T03:22:39;60.85;;;16.58;;
52534;SDS011;38443;53.164;5.802;2022-12-11T03:24:55;55.53;;;16.02;;
52534;SDS011;38443;53.164;5.802;2022-12-11T03:27:56;64.82;;;18.48;;
52534;SDS011;38443;53.164;5.802;2022-12-11T03:30:27;61.20;;;17.95;;
52534;SDS011;38443;53.164;5.802;2022-12-11T03:32:54;69.65;;;15.50;;
52534;SDS011;38443;53.164;5.802;2022-12-11T03:38:02;56.15;;;16.23;;
52534;SDS011;38443;53.164;5.802;2022-12-11T03:40:32;65.97;;;16.30;;
52534;SDS011;38443;53.164;5.802;2022-12-11T03:42:59;72.35;;;18.67;;
52534;SDS011;38443;53.164;5.802;2022-12-11T03:45:25;61.75;;;17.73;;
52534;SDS011;38443;53.164;5.802;2022-12-11T03:47:54;72.95;;;18.95;;
52534;SDS011;38443;53.164;5.802;2022-12-11T03:50:22;64.90;;;16.05;;
52534;SDS011;38443;53.164;5.802;2022-12-11T03:52:50;60.92;;;16.45;;
52534;SDS011;38443;53.164;5.802;2022-12-11T03:55:18;52.75;;;17.13;;
52534;SDS011;38443;53.164;5.802;2022-12-11T03:57:46;63.65;;;17.30;;
52534;SDS011;38443;53.164;5.802;2022-12-11T04:00:14;57.30;;;15.05;;
52534;SDS011;38443;53.164;5.802;2022-12-11T04:02:42;73.95;;;15.50;;
52534;SDS011;38443;53.164;5.802;2022-12-11T04:05:09;69.63;;;16.95;;
52534;SDS011;38443;53.164;5.802;2022-12-11T04:07:35;57.42;;;16.00;;
52534;SDS011;38443;53.164;5.802;2022-12-11T04:10:01;64.22;;;16.75;;
52534;SDS011;38443;53.164;5.802;2022-12-11T04:12:27;52.25;;;16.02;;
52534;SDS011;38443;53.164;5.802;2022-12-11T04:14:53;76.15;;;18.08;;
52534;SDS011;38443;53.164;5.802;2022-12-11T04:17:28;64.90;;;18.10;;
52534;SDS011;38443;53.164;5.802;2022-12-11T04:20:16;68.85;;;17.90;;
52534;SDS011;38443;53.164;5.802;2022-12-11T04:23:04;57.58;;;16.23;;
52534;SDS011;38443;53.164;5.802;2022-12-11T04:25:49;60.17;;;17.35;;
52534;SDS011;38443;53.164;5.802;2022-12-11T04:28:14;47.83;;;15.23;;
52534;SDS011;38443;53.164;5.802;2022-12-11T04:30:40;64.85;;;15.52;;
52534;SDS011;38443;53.164;5.802;2022-12-11T04:33:12;59.30;;;15.50;;
52534;SDS011;38443;53.164;5.802;2022-12-11T04:35:38;63.45;;;16.55;;
52534;SDS011;38443;53.164;5.802;2022-12-11T04:38:03;61.15;;;16.73;;
52534;SDS011;38443;53.164;5.802;2022-12-11T04:42:54;50.75;;;14.63;;
52534;SDS011;38443;53.164;5.802;2022-12-11T04:47:44;55.53;;;16.27;;
52534;SDS011;38443;53.164;5.802;2022-12-11T04:52:36;71.00;;;18.90;;
52534;SDS011;38443;53.164;5.802;2022-12-11T04:55:03;57.92;;;14.73;;
52534;SDS011;38443;53.164;5.802;2022-12-11T04:57:31;60.53;;;16.80;;
52534;SDS011;38443;53.164;5.802;2022-12-11T04:59:57;54.05;;;15.00;;
52534;SDS011;38443;53.164;5.802;2022-12-11T05:02:24;56.83;;;15.60;;
52534;SDS011;38443;53.164;5.802;2022-12-11T05:04:50;65.88;;;17.05;;
52534;SDS011;38443;53.164;5.802;2022-12-11T05:07:17;51.50;;;14.85;;
52534;SDS011;38443;53.164;5.802;2022-12-11T05:09:42;49.00;;;16.23;;
52534;SDS011;38443;53.164;5.802;2022-12-11T05:14:33;57.35;;;15.98;;
52534;SDS011;38443;53.164;5.802;2022-12-11T05:16:58;48.00;;;13.95;;
52534;SDS011;38443;53.164;5.802;2022-12-11T05:21:49;49.70;;;15.20;;
52534;SDS011;38443;53.164;5.802;2022-12-11T05:24:15;56.42;;;15.27;;
52534;SDS011;38443;53.164;5.802;2022-12-11T05:26:40;58.20;;;14.13;;
52534;SDS011;38443;53.164;5.802;2022-12-11T05:29:05;57.70;;;15.40;;
52534;SDS011;38443;53.164;5.802;2022-12-11T05:33:56;54.35;;;12.82;;
52534;SDS011;38443;53.164;5.802;2022-12-11T05:38:52;44.03;;;14.45;;
52534;SDS011;38443;53.164;5.802;2022-12-11T05:41:19;54.17;;;15.23;;
52534;SDS011;38443;53.164;5.802;2022-12-11T05:43:48;54.60;;;14.00;;
52534;SDS011;38443;53.164;5.802;2022-12-11T05:46:14;53.40;;;14.27;;
52534;SDS011;38443;53.164;5.802;2022-12-11T05:48:45;48.95;;;15.13;;
52534;SDS011;38443;53.164;5.802;2022-12-11T05:51:12;60.15;;;16.67;;
52534;SDS011;38443;53.164;5.802;2022-12-11T05:53:38;52.20;;;13.77;;
52534;SDS011;38443;53.164;5.802;2022-12-11T05:56:06;60.30;;;16.40;;
52534;SDS011;38443;53.164;5.802;2022-12-11T05:58:37;60.45;;;15.40;;
52534;SDS011;38443;53.164;5.802;2022-12-11T06:01:10;44.63;;;13.73;;
52534;SDS011;38443;53.164;5.802;2022-12-11T06:03:38;60.17;;;15.40;;
52534;SDS011;38443;53.164;5.802;2022-12-11T06:06:04;43.22;;;16.25;;
52534;SDS011;38443;53.164;5.802;2022-12-11T06:08:32;44.33;;;14.65;;
52534;SDS011;38443;53.164;5.802;2022-12-11T06:10:58;48.65;;;15.27;;
52534;SDS011;38443;53.164;5.802;2022-12-11T06:13:24;39.95;;;13.38;;
52534;SDS011;38443;53.164;5.802;2022-12-11T06:15:49;46.85;;;14.80;;
52534;SDS011;38443;53.164;5.802;2022-12-11T06:18:15;45.35;;;13.95;;
52534;SDS011;38443;53.164;5.802;2022-12-11T06:20:40;47.92;;;14.63;;
52534;SDS011;38443;53.164;5.802;2022-12-11T06:25:31;36.85;;;12.98;;
52534;SDS011;38443;53.164;5.802;2022-12-11T06:30:23;48.55;;;14.35;;
52534;SDS011;38443;53.164;5.802;2022-12-11T06:35:14;48.40;;;13.02;;
52534;SDS011;38443;53.164;5.802;2022-12-11T06:40:05;41.60;;;13.95;;
52534;SDS011;38443;53.164;5.802;2022-12-11T06:42:32;54.47;;;14.77;;
52534;SDS011;38443;53.164;5.802;2022-12-11T06:44:58;39.80;;;13.27;;
52534;SDS011;38443;53.164;5.802;2022-12-11T06:47:30;56.83;;;14.75;;
52534;SDS011;38443;53.164;5.802;2022-12-11T06:49:55;51.90;;;14.38;;
52534;SDS011;38443;53.164;5.802;2022-12-11T06:52:21;58.67;;;15.27;;
52534;SDS011;38443;53.164;5.802;2022-12-11T06:54:48;49.75;;;13.70;;
52534;SDS011;38443;53.164;5.802;2022-12-11T06:57:14;56.55;;;16.13;;
52534;SDS011;38443;53.164;5.802;2022-12-11T06:59:40;43.42;;;13.43;;
52534;SDS011;38443;53.164;5.802;2022-12-11T07:02:06;59.25;;;14.25;;
52534;SDS011;38443;53.164;5.802;2022-12-11T07:04:37;50.53;;;15.68;;
52534;SDS011;38443;53.164;5.802;2022-12-11T07:07:03;49.70;;;13.95;;
52534;SDS011;38443;53.164;5.802;2022-12-11T07:09:28;50.70;;;15.43;;
52534;SDS011;38443;53.164;5.802;2022-12-11T07:14:19;48.97;;;14.50;;
52534;SDS011;38443;53.164;5.802;2022-12-11T07:19:09;45.08;;;13.98;;
52534;SDS011;38443;53.164;5.802;2022-12-11T07:21:35;51.67;;;13.82;;
52534;SDS011;38443;53.164;5.802;2022-12-11T07:24:01;47.05;;;15.48;;
52534;SDS011;38443;53.164;5.802;2022-12-11T07:28:52;44.55;;;14.15;;
52534;SDS011;38443;53.164;5.802;2022-12-11T07:31:22;41.45;;;15.40;;
52534;SDS011;38443;53.164;5.802;2022-12-11T07:33:59;56.38;;;15.48;;
52534;SDS011;38443;53.164;5.802;2022-12-11T07:36:27;56.72;;;17.98;;
52534;SDS011;38443;53.164;5.802;2022-12-11T07:38:53;59.85;;;16.58;;
52534;SDS011;38443;53.164;5.802;2022-12-11T07:41:19;57.58;;;15.60;;
52534;SDS011;38443;53.164;5.802;2022-12-11T07:46:11;68.68;;;14.95;;
52534;SDS011;38443;53.164;5.802;2022-12-11T07:48:39;46.17;;;15.45;;
52534;SDS011;38443;53.164;5.802;2022-12-11T07:51:09;55.17;;;16.15;;
52534;SDS011;38443;53.164;5.802;2022-12-11T07:53:39;46.10;;;15.07;;
52534;SDS011;38443;53.164;5.802;2022-12-11T07:56:05;55.80;;;15.85;;
52534;SDS011;38443;53.164;5.802;2022-12-11T08:00:57;56.05;;;16.58;;
52534;SDS011;38443;53.164;5.802;2022-12-11T08:05:49;52.92;;;16.98;;
52534;SDS011;38443;53.164;5.802;2022-12-11T08:08:15;54.13;;;18.88;;
52534;SDS011;38443;53.164;5.802;2022-12-11T08:13:06;60.45;;;17.40;;
52534;SDS011;38443;53.164;5.802;2022-12-11T08:17:57;46.30;;;15.95;;
52534;SDS011;38443;53.164;5.802;2022-12-11T08:20:23;47.10;;;16.70;;
52534;SDS011;38443;53.164;5.802;2022-12-11T08:22:48;59.70;;;18.48;;
52534;SDS011;38443;53.164;5.802;2022-12-11T08:27:39;55.90;;;18.73;;
52534;SDS011;38443;53.164;5.802;2022-12-11T08:30:05;58.55;;;18.70;;
52534;SDS011;38443;53.164;5.802;2022-12-11T08:34:56;66.35;;;19.08;;
52534;SDS011;38443;53.164;5.802;2022-12-11T08:39:47;57.05;;;17.40;;
52534;SDS011;38443;53.164;5.802;2022-12-11T08:44:37;65.07;;;19.38;;
52534;SDS011;38443;53.164;5.802;2022-12-11T08:47:02;62.38;;;20.58;;
52534;SDS011;38443;53.164;5.802;2022-12-11T08:51:53;50.42;;;18.27;;
52534;SDS011;38443;53.164;5.802;2022-12-11T08:56:44;67.38;;;18.52;;
52534;SDS011;38443;53.164;5.802;2022-12-11T08:59:09;68.97;;;20.48;;
52534;SDS011;38443;53.164;5.802;2022-12-11T09:01:35;68.18;;;19.30;;
52534;SDS011;38443;53.164;5.802;2022-12-11T09:04:01;74.70;;;19.25;;
52534;SDS011;38443;53.164;5.802;2022-12-11T09:06:27;61.03;;;18.67;;
52534;SDS011;38443;53.164;5.802;2022-12-11T09:08:54;64.32;;;18.55;;
52534;SDS011;38443;53.164;5.802;2022-12-11T09:13:50;54.55;;;18.23;;
52534;SDS011;38443;53.164;5.802;2022-12-11T09:16:16;63.72;;;19.67;;
52534;SDS011;38443;53.164;5.802;2022-12-11T09:18:46;51.85;;;18.25;;
52534;SDS011;38443;53.164;5.802;2022-12-11T09:21:14;60.42;;;20.20;;
52534;SDS011;38443;53.164;5.802;2022-12-11T09:23:41;50.78;;;17.30;;
52534;SDS011;38443;53.164;5.802;2022-12-11T09:28:35;66.30;;;19.25;;
52534;SDS011;38443;53.164;5.802;2022-12-11T09:33:31;59.03;;;20.40;;
52534;SDS011;38443;53.164;5.802;2022-12-11T09:35:57;62.25;;;19.38;;
52534;SDS011;38443;53.164;5.802;2022-12-11T09:38:24;60.08;;;20.48;;
52534;SDS011;38443;53.164;5.802;2022-12-11T09:40:49;67.60;;;20.60;;
52534;SDS011;38443;53.164;5.802;2022-12-11T09:43:25;61.75;;;19.88;;
52534;SDS011;38443;53.164;5.802;2022-12-11T09:45:56;52.05;;;16.77;;
52534;SDS011;38443;53.164;5.802;2022-12-11T09:48:25;56.55;;;20.75;;
52534;SDS011;38443;53.164;5.802;2022-12-11T09:50:50;46.85;;;16.75;;
52534;SDS011;38443;53.164;5.802;2022-12-11T09:53:26;59.85;;;18.85;;
52534;SDS011;38443;53.164;5.802;2022-12-11T09:56:16;65.53;;;19.48;;
52534;SDS011;38443;53.164;5.802;2022-12-11T09:58:54;50.70;;;18.13;;
52534;SDS011;38443;53.164;5.802;2022-12-11T10:12:13;38.85;;;16.08;;
52534;SDS011;38443;53.164;5.802;2022-12-11T10:14:58;51.63;;;17.02;;
52534;SDS011;38443;53.164;5.802;2022-12-11T10:17:33;44.00;;;17.17;;
52534;SDS011;38443;53.164;5.802;2022-12-11T10:20:16;49.25;;;16.20;;
52534;SDS011;38443;53.164;5.802;2022-12-11T10:22:46;44.05;;;15.52;;
52534;SDS011;38443;53.164;5.802;2022-12-11T10:28:13;42.13;;;15.02;;
52534;SDS011;38443;53.164;5.802;2022-12-11T10:31:05;43.15;;;16.77;;
52534;SDS011;38443;53.164;5.802;2022-12-11T10:33:57;49.90;;;18.48;;
52534;SDS011;38443;53.164;5.802;2022-12-11T10:36:33;47.42;;;16.50;;
52534;SDS011;38443;53.164;5.802;2022-12-11T10:39:01;46.13;;;16.85;;
52534;SDS011;38443;53.164;5.802;2022-12-11T10:41:37;56.72;;;18.25;;
52534;SDS011;38443;53.164;5.802;2022-12-11T10:44:14;47.67;;;18.98;;
52534;SDS011;38443;53.164;5.802;2022-12-11T10:46:40;53.13;;;20.30;;
52534;SDS011;38443;53.164;5.802;2022-12-11T10:49:17;47.95;;;17.08;;
52534;SDS011;38443;53.164;5.802;2022-12-11T10:51:53;47.40;;;17.65;;
52534;SDS011;38443;53.164;5.802;2022-12-11T10:57:08;43.50;;;17.75;;
52534;SDS011;38443;53.164;5.802;2022-12-11T11:02:16;47.72;;;15.90;;
52534;SDS011;38443;53.164;5.802;2022-12-11T11:04:47;48.72;;;17.60;;
52534;SDS011;38443;53.164;5.802;2022-12-11T11:09:42;55.25;;;16.27;;
52534;SDS011;38443;53.164;5.802;2022-12-11T11:14:58;52.63;;;18.88;;
52534;SDS011;38443;53.164;5.802;2022-12-11T11:17:24;42.80;;;16.27;;
52534;SDS011;38443;53.164;5.802;2022-12-11T11:19:50;54.92;;;18.60;;
52534;SDS011;38443;53.164;5.802;2022-12-11T11:22:16;43.55;;;15.48;;
52534;SDS011;38443;53.164;5.802;2022-12-11T11:24:44;48.88;;;17.60;;
52534;SDS011;38443;53.164;5.802;2022-12-11T11:29:52;48.53;;;18.52;;
52534;SDS011;38443;53.164;5.802;2022-12-11T11:32:26;40.78;;;16.38;;
52534;SDS011;38443;53.164;5.802;2022-12-11T11:35:03;49.35;;;17.13;;
52534;SDS011;38443;53.164;5.802;2022-12-11T11:40:38;43.50;;;16.15;;
52534;SDS011;38443;53.164;5.802;2022-12-11T11:46:01;48.45;;;17.60;;
52534;SDS011;38443;53.164;5.802;2022-12-11T11:48:39;47.53;;;17.50;;
52534;SDS011;38443;53.164;5.802;2022-12-11T11:51:18;44.65;;;16.95;;
52534;SDS011;38443;53.164;5.802;2022-12-11T11:53:49;39.33;;;15.70;;
52534;SDS011;38443;53.164;5.802;2022-12-11T11:56:28;48.05;;;17.52;;
52534;SDS011;38443;53.164;5.802;2022-12-11T12:01:55;47.85;;;17.27;;
52534;SDS011;38443;53.164;5.802;2022-12-11T12:04:22;43.92;;;16.55;;
52534;SDS011;38443;53.164;5.802;2022-12-11T12:09:51;46.47;;;17.08;;
52534;SDS011;38443;53.164;5.802;2022-12-11T12:15:25;41.33;;;16.95;;
52534;SDS011;38443;53.164;5.802;2022-12-11T12:18:06;36.00;;;15.30;;
52534;SDS011;38443;53.164;5.802;2022-12-11T12:26:05;40.78;;;14.50;;
52534;SDS011;38443;53.164;5.802;2022-12-11T12:28:44;48.10;;;17.00;;
52534;SDS011;38443;53.164;5.802;2022-12-11T12:34:00;37.25;;;14.73;;
52534;SDS011;38443;53.164;5.802;2022-12-11T12:36:39;40.60;;;16.00;;
52534;SDS011;38443;53.164;5.802;2022-12-11T12:44:58;44.65;;;17.45;;
52534;SDS011;38443;53.164;5.802;2022-12-11T12:47:32;45.72;;;19.05;;
52534;SDS011;38443;53.164;5.802;2022-12-11T12:50:01;49.60;;;19.50;;
52534;SDS011;38443;53.164;5.802;2022-12-11T12:52:35;49.55;;;19.65;;
52534;SDS011;38443;53.164;5.802;2022-12-11T12:55:17;45.95;;;20.33;;
52534;SDS011;38443;53.164;5.802;2022-12-11T13:00:51;53.00;;;21.52;;
52534;SDS011;38443;53.164;5.802;2022-12-11T13:05:53;47.63;;;20.90;;
52534;SDS011;38443;53.164;5.802;2022-12-11T13:08:30;43.35;;;20.33;;
52534;SDS011;38443;53.164;5.802;2022-12-11T13:11:04;44.72;;;18.83;;
52534;SDS011;38443;53.164;5.802;2022-12-11T13:13:38;40.78;;;19.52;;
52534;SDS011;38443;53.164;5.802;2022-12-11T13:18:45;47.85;;;19.95;;
52534;SDS011;38443;53.164;5.802;2022-12-11T13:21:55;46.15;;;20.15;;
52534;SDS011;38443;53.164;5.802;2022-12-11T13:26:38;42.45;;;19.08;;
52534;SDS011;38443;53.164;5.802;2022-12-11T13:31:37;43.20;;;18.58;;
52534;SDS011;38443;53.164;5.802;2022-12-11T13:34:17;42.30;;;16.92;;
52534;SDS011;38443;53.164;5.802;2022-12-11T13:36:47;38.70;;;17.27;;
52534;SDS011;38443;53.164;5.802;2022-12-11T13:39:15;40.50;;;17.27;;
52534;SDS011;38443;53.164;5.802;2022-12-11T13:41:49;42.58;;;18.20;;
52534;SDS011;38443;53.164;5.802;2022-12-11T13:44:23;43.72;;;17.92;;
52534;SDS011;38443;53.164;5.802;2022-12-11T13:46:51;45.17;;;18.73;;
52534;SDS011;38443;53.164;5.802;2022-12-11T13:49:24;43.65;;;18.42;;
52534;SDS011;38443;53.164;5.802;2022-12-11T13:51:57;43.03;;;17.98;;
52534;SDS011;38443;53.164;5.802;2022-12-11T13:54:23;43.83;;;18.95;;
52534;SDS011;38443;53.164;5.802;2022-12-11T13:59:29;38.95;;;17.55;;
52534;SDS011;38443;53.164;5.802;2022-12-11T14:02:24;43.22;;;17.42;;
52534;SDS011;38443;53.164;5.802;2022-12-11T14:04:52;40.75;;;16.85;;
52534;SDS011;38443;53.164;5.802;2022-12-11T14:07:26;35.85;;;17.17;;
52534;SDS011;38443;53.164;5.802;2022-12-11T14:09:58;45.58;;;19.33;;
52534;SDS011;38443;53.164;5.802;2022-12-11T14:12:26;38.20;;;17.33;;
52534;SDS011;38443;53.164;5.802;2022-12-11T14:14:53;38.92;;;16.83;;
52534;SDS011;38443;53.164;5.802;2022-12-11T14:17:25;37.55;;;16.55;;
52534;SDS011;38443;53.164;5.802;2022-12-11T14:19:53;38.35;;;17.90;;
52534;SDS011;38443;53.164;5.802;2022-12-11T14:22:22;37.40;;;17.88;;
52534;SDS011;38443;53.164;5.802;2022-12-11T14:24:50;44.80;;;18.45;;
52534;SDS011;38443;53.164;5.802;2022-12-11T14:27:17;39.72;;;17.05;;
52534;SDS011;38443;53.164;5.802;2022-12-11T14:29:44;41.00;;;18.38;;
52534;SDS011;38443;53.164;5.802;2022-12-11T14:32:17;40.15;;;18.15;;
52534;SDS011;38443;53.164;5.802;2022-12-11T14:35:04;44.45;;;19.45;;
52534;SDS011;38443;53.164;5.802;2022-12-11T14:37:36;43.28;;;18.35;;
52534;SDS011;38443;53.164;5.802;2022-12-11T14:40:06;43.90;;;19.33;;
52534;SDS011;38443;53.164;5.802;2022-12-11T14:42:39;39.83;;;16.98;;
52534;SDS011;38443;53.164;5.802;2022-12-11T14:47:52;35.90;;;16.80;;
52534;SDS011;38443;53.164;5.802;2022-12-11T14:50:26;41.38;;;18.73;;
52534;SDS011;38443;53.164;5.802;2022-12-11T14:53:14;41.47;;;17.30;;
52534;SDS011;38443;53.164;5.802;2022-12-11T14:55:43;49.75;;;19.75;;
52534;SDS011;38443;53.164;5.802;2022-12-11T14:58:16;41.70;;;18.38;;
52534;SDS011;38443;53.164;5.802;2022-12-11T15:00:55;43.22;;;17.35;;
52534;SDS011;38443;53.164;5.802;2022-12-11T15:03:33;42.00;;;18.75;;
52534;SDS011;38443;53.164;5.802;2022-12-11T15:06:01;38.25;;;16.77;;
52534;SDS011;38443;53.164;5.802;2022-12-11T15:08:32;41.55;;;18.40;;
52534;SDS011;38443;53.164;5.802;2022-12-11T15:11:12;40.58;;;17.33;;
52534;SDS011;38443;53.164;5.802;2022-12-11T15:13:48;38.67;;;15.90;;
52534;SDS011;38443;53.164;5.802;2022-12-11T15:16:20;37.65;;;17.10;;
52534;SDS011;38443;53.164;5.802;2022-12-11T15:18:48;38.88;;;18.10;;
52534;SDS011;38443;53.164;5.802;2022-12-11T15:21:16;38.20;;;16.67;;
52534;SDS011;38443;53.164;5.802;2022-12-11T15:26:11;39.53;;;16.92;;
52534;SDS011;38443;53.164;5.802;2022-12-11T15:28:37;42.47;;;19.00;;
52534;SDS011;38443;53.164;5.802;2022-12-11T15:31:20;38.90;;;17.02;;
52534;SDS011;38443;53.164;5.802;2022-12-11T15:33:48;37.17;;;15.65;;
52534;SDS011;38443;53.164;5.802;2022-12-11T15:36:18;44.42;;;17.20;;
52534;SDS011;38443;53.164;5.802;2022-12-11T15:38:50;38.25;;;16.33;;
52534;SDS011;38443;53.164;5.802;2022-12-11T15:41:17;38.03;;;17.05;;
52534;SDS011;38443;53.164;5.802;2022-12-11T15:43:49;39.13;;;17.30;;
52534;SDS011;38443;53.164;5.802;2022-12-11T15:46:16;39.28;;;17.55;;
52534;SDS011;38443;53.164;5.802;2022-12-11T15:48:41;38.63;;;16.45;;
52534;SDS011;38443;53.164;5.802;2022-12-11T15:51:07;41.65;;;15.68;;
52534;SDS011;38443;53.164;5.802;2022-12-11T15:53:33;36.83;;;16.60;;
52534;SDS011;38443;53.164;5.802;2022-12-11T15:55:59;42.17;;;17.40;;
52534;SDS011;38443;53.164;5.802;2022-12-11T15:58:24;35.03;;;17.42;;
52534;SDS011;38443;53.164;5.802;2022-12-11T16:00:51;34.10;;;16.42;;
52534;SDS011;38443;53.164;5.802;2022-12-11T16:03:18;37.83;;;17.15;;
52534;SDS011;38443;53.164;5.802;2022-12-11T16:05:45;40.15;;;17.23;;
52534;SDS011;38443;53.164;5.802;2022-12-11T16:08:13;36.20;;;16.55;;
52534;SDS011;38443;53.164;5.802;2022-12-11T16:10:41;40.75;;;16.33;;
52534;SDS011;38443;53.164;5.802;2022-12-11T16:13:07;36.80;;;16.83;;
52534;SDS011;38443;53.164;5.802;2022-12-11T16:15:32;49.00;;;22.27;;
52534;SDS011;38443;53.164;5.802;2022-12-11T16:18:08;35.45;;;15.50;;
52534;SDS011;38443;53.164;5.802;2022-12-11T16:20:35;34.35;;;16.13;;
52534;SDS011;38443;53.164;5.802;2022-12-11T16:23:02;36.15;;;17.48;;
52534;SDS011;38443;53.164;5.802;2022-12-11T16:27:54;37.90;;;17.95;;
52534;SDS011;38443;53.164;5.802;2022-12-11T16:30:21;37.10;;;16.15;;
52534;SDS011;38443;53.164;5.802;2022-12-11T16:32:47;40.38;;;16.73;;
52534;SDS011;38443;53.164;5.802;2022-12-11T16:35:12;35.45;;;16.38;;
52534;SDS011;38443;53.164;5.802;2022-12-11T16:37:38;36.03;;;14.77;;
52534;SDS011;38443;53.164;5.802;2022-12-11T16:40:04;36.58;;;15.40;;
52534;SDS011;38443;53.164;5.802;2022-12-11T16:42:33;37.17;;;17.30;;
52534;SDS011;38443;53.164;5.802;2022-12-11T16:45:03;35.08;;;15.00;;
52534;SDS011;38443;53.164;5.802;2022-12-11T16:47:30;36.38;;;15.52;;
52534;SDS011;38443;53.164;5.802;2022-12-11T16:49:56;33.03;;;14.63;;
52534;SDS011;38443;53.164;5.802;2022-12-11T16:52:22;41.83;;;17.60;;
52534;SDS011;38443;53.164;5.802;2022-12-11T16:54:47;30.00;;;14.68;;
52534;SDS011;38443;53.164;5.802;2022-12-11T16:59:38;38.72;;;16.77;;
52534;SDS011;38443;53.164;5.802;2022-12-11T17:04:29;42.67;;;19.40;;
52534;SDS011;38443;53.164;5.802;2022-12-11T17:06:55;38.85;;;18.20;;
52534;SDS011;38443;53.164;5.802;2022-12-11T17:11:46;40.92;;;17.30;;
52534;SDS011;38443;53.164;5.802;2022-12-11T17:14:11;36.13;;;16.40;;
52534;SDS011;38443;53.164;5.802;2022-12-11T17:19:02;43.45;;;17.73;;
52534;SDS011;38443;53.164;5.802;2022-12-11T17:21:31;44.08;;;18.80;;
52534;SDS011;38443;53.164;5.802;2022-12-11T17:23:57;42.00;;;17.83;;
52534;SDS011;38443;53.164;5.802;2022-12-11T17:26:22;41.17;;;18.25;;
52534;SDS011;38443;53.164;5.802;2022-12-11T17:28:49;47.33;;;18.50;;
52534;SDS011;38443;53.164;5.802;2022-12-11T17:31:16;39.78;;;18.67;;
52534;SDS011;38443;53.164;5.802;2022-12-11T17:33:43;44.90;;;20.17;;
52534;SDS011;38443;53.164;5.802;2022-12-11T17:36:10;46.45;;;19.52;;
52534;SDS011;38443;53.164;5.802;2022-12-11T17:38:37;41.13;;;16.92;;
52534;SDS011;38443;53.164;5.802;2022-12-11T17:41:06;35.75;;;16.67;;
52534;SDS011;38443;53.164;5.802;2022-12-11T17:43:33;42.67;;;17.52;;
52534;SDS011;38443;53.164;5.802;2022-12-11T17:45:58;50.30;;;21.50;;
52534;SDS011;38443;53.164;5.802;2022-12-11T17:50:50;48.55;;;20.27;;
52534;SDS011;38443;53.164;5.802;2022-12-11T17:53:17;42.95;;;19.25;;
52534;SDS011;38443;53.164;5.802;2022-12-11T17:55:43;45.80;;;18.75;;
52534;SDS011;38443;53.164;5.802;2022-12-11T17:58:19;43.92;;;19.05;;
52534;SDS011;38443;53.164;5.802;2022-12-11T18:00:47;42.00;;;17.30;;
52534;SDS011;38443;53.164;5.802;2022-12-11T18:03:14;38.03;;;17.35;;
52534;SDS011;38443;53.164;5.802;2022-12-11T18:05:47;44.38;;;17.27;;